createdAt,value
2018-08-08T00:01:45.080Z,6.17
2018-08-08T00:04:15.648Z,6.03
2018-08-08T00:06:46.364Z,5.50
2018-08-08T00:09:17.058Z,6.40
2018-08-08T00:11:48.398Z,5.00
2018-08-08T00:14:18.620Z,6.27
2018-08-08T00:16:49.155Z,5.37
2018-08-08T00:19:19.800Z,5.97
2018-08-08T00:21:50.372Z,5.40
2018-08-08T00:24:20.982Z,6.13
2018-08-08T00:26:51.685Z,5.30
2018-08-08T00:29:22.421Z,5.17
2018-08-08T00:31:53.068Z,5.57
2018-08-08T00:34:23.786Z,6.00
2018-08-08T00:36:54.508Z,5.87
2018-08-08T00:39:25.676Z,6.17
2018-08-08T00:41:56.577Z,5.60
2018-08-08T00:44:27.101Z,5.77
2018-08-08T00:46:57.766Z,5.57
2018-08-08T00:49:28.208Z,5.90
2018-08-08T00:51:58.857Z,5.77
2018-08-08T00:54:29.422Z,4.80
2018-08-08T00:56:59.810Z,5.70
2018-08-08T00:59:30.241Z,5.07
2018-08-08T01:02:02.017Z,5.20
2018-08-08T01:04:32.685Z,5.00
2018-08-08T01:07:03.778Z,5.20
2018-08-08T01:09:34.454Z,6.07
2018-08-08T01:12:05.027Z,5.70
2018-08-08T01:14:35.840Z,5.37
2018-08-08T01:17:07.070Z,5.83
2018-08-08T01:19:37.812Z,5.53
2018-08-08T01:22:08.507Z,5.23
2018-08-08T01:24:39.191Z,6.10
2018-08-08T01:27:09.902Z,5.30
2018-08-08T01:29:40.621Z,5.33
2018-08-08T01:32:11.248Z,5.03
2018-08-08T01:34:41.957Z,5.30
2018-08-08T01:37:12.629Z,5.50
2018-08-08T01:39:43.113Z,4.97
2018-08-08T01:42:13.814Z,5.40
2018-08-08T01:44:44.757Z,5.30
2018-08-08T01:47:15.318Z,4.83
2018-08-08T01:49:46.139Z,5.40
2018-08-08T01:52:16.649Z,5.80
2018-08-08T01:54:47.196Z,5.20
2018-08-08T01:57:17.831Z,5.40
2018-08-08T01:59:48.404Z,5.47
2018-08-08T02:02:19.054Z,5.40
2018-08-08T02:04:49.402Z,5.00
2018-08-08T02:07:20.131Z,5.53
2018-08-08T02:09:50.730Z,5.50
2018-08-08T02:12:21.500Z,5.10
2018-08-08T02:14:52.187Z,5.90
2018-08-08T02:17:22.750Z,5.50
2018-08-08T02:19:53.419Z,5.60
2018-08-08T02:22:24.033Z,6.17
2018-08-08T02:24:54.817Z,4.53
2018-08-08T02:27:25.486Z,5.00
2018-08-08T02:29:56.126Z,5.20
2018-08-08T02:32:26.863Z,6.27
2018-08-08T02:35:04.457Z,6.57
2018-08-08T02:37:35.142Z,4.60
2018-08-08T02:40:07.958Z,5.30
2018-08-08T02:42:39.048Z,4.60
2018-08-08T02:45:14.366Z,4.27
2018-08-08T02:47:45.184Z,5.53
2018-08-08T02:50:18.138Z,4.73
2018-08-08T02:52:48.808Z,4.40
2018-08-08T02:55:19.372Z,4.53
2018-08-08T02:57:50.174Z,5.00
2018-08-08T03:00:21.549Z,4.60
2018-08-08T03:02:52.101Z,5.40
2018-08-08T03:05:22.740Z,4.47
2018-08-08T03:07:53.592Z,4.93
2018-08-08T03:10:23.853Z,5.07
2018-08-08T03:12:54.338Z,5.57
2018-08-08T03:15:25.028Z,5.40
2018-08-08T03:17:55.645Z,4.30
2018-08-08T03:20:26.349Z,5.17
2018-08-08T03:22:57.212Z,4.83
2018-08-08T03:25:27.925Z,5.20
2018-08-08T03:27:58.757Z,4.60
2018-08-08T03:30:29.391Z,5.40
2018-08-08T03:33:00.121Z,4.70
2018-08-08T03:35:30.315Z,4.83
2018-08-08T03:38:00.870Z,4.37
2018-08-08T03:40:31.492Z,5.17
2018-08-08T03:43:01.743Z,5.80
2018-08-08T03:45:31.968Z,4.67
2018-08-08T03:48:09.136Z,4.43
2018-08-08T03:50:40.485Z,5.03
2018-08-08T03:53:11.212Z,4.37
2018-08-08T03:55:42.034Z,5.50
2018-08-08T03:58:12.886Z,4.20
2018-08-08T04:00:43.522Z,6.03
2018-08-08T04:03:14.202Z,5.20
2018-08-08T04:05:44.738Z,5.33
2018-08-08T04:08:15.365Z,5.00
2018-08-08T04:10:46.073Z,5.50
2018-08-08T04:13:16.628Z,4.80
2018-08-08T04:15:47.097Z,5.63
2018-08-08T04:18:17.928Z,5.13
2018-08-08T04:20:48.658Z,4.07
2018-08-08T04:23:19.202Z,4.10
2018-08-08T04:25:49.836Z,5.17
2018-08-08T04:28:20.068Z,3.80
2018-08-08T04:30:50.480Z,4.37
2018-08-08T04:33:20.869Z,4.30
2018-08-08T04:35:51.514Z,3.70
2018-08-08T04:38:22.244Z,3.90
2018-08-08T04:40:53.095Z,4.87
2018-08-08T04:43:23.761Z,3.50
2018-08-08T04:45:54.692Z,3.50
2018-08-08T04:48:25.460Z,4.47
2018-08-08T04:50:56.017Z,3.57
2018-08-08T04:53:26.718Z,2.70
2018-08-08T04:55:57.295Z,3.67
2018-08-08T04:58:27.927Z,2.93
2018-08-08T05:00:58.616Z,3.93
2018-08-08T05:03:29.304Z,3.57
2018-08-08T05:06:00.030Z,3.20
2018-08-08T05:08:30.799Z,4.70
2018-08-08T05:11:01.048Z,3.17
2018-08-08T05:13:31.800Z,3.20
2018-08-08T05:16:02.577Z,2.60
2018-08-08T05:18:33.316Z,3.17
2018-08-08T05:21:03.476Z,3.40
2018-08-08T05:23:34.329Z,2.83
2018-08-08T05:26:04.987Z,3.30
2018-08-08T05:28:35.654Z,3.20
2018-08-08T05:31:06.196Z,3.37
2018-08-08T05:33:36.914Z,2.90
2018-08-08T05:36:07.670Z,3.10
2018-08-08T05:38:38.350Z,3.50
2018-08-08T05:41:09.770Z,2.97
2018-08-08T05:43:40.498Z,3.30
2018-08-08T05:46:11.336Z,2.97
2018-08-08T05:49:09.002Z,2.73
2018-08-08T05:51:38.576Z,3.43
2018-08-08T05:54:08.433Z,2.83
2018-08-08T05:56:38.239Z,2.90
2018-08-08T05:59:07.908Z,2.60
2018-08-08T06:01:37.719Z,3.87
2018-08-08T06:04:08.534Z,2.70
2018-08-08T06:06:38.305Z,2.93
2018-08-08T06:09:09.911Z,2.53
2018-08-08T06:11:39.592Z,2.50
2018-08-08T06:14:09.590Z,3.20
2018-08-08T06:16:39.456Z,2.40
2018-08-08T06:19:09.096Z,2.60
2018-08-08T06:21:38.934Z,2.80
2018-08-08T06:24:08.747Z,2.50
2018-08-08T06:26:38.274Z,3.63
2018-08-08T06:29:08.049Z,3.30
2018-08-08T06:31:37.953Z,3.23
2018-08-08T06:34:07.930Z,2.10
2018-08-08T06:36:37.724Z,2.20
2018-08-08T06:39:12.860Z,2.63
2018-08-08T06:41:43.202Z,2.30
2018-08-08T06:44:13.293Z,2.10
2018-08-08T06:46:43.079Z,2.60
2018-08-08T06:49:12.966Z,2.50
2018-08-08T06:51:42.644Z,1.77
2018-08-08T06:54:12.503Z,2.20
2018-08-08T06:56:42.174Z,2.37
2018-08-08T06:59:11.787Z,1.70
2018-08-08T07:01:41.802Z,1.90
2018-08-08T07:04:11.660Z,2.03
2018-08-08T07:06:41.384Z,2.13
2018-08-08T07:09:12.370Z,2.10
2018-08-08T07:11:42.111Z,2.60
2018-08-08T07:14:11.895Z,2.30
2018-08-08T07:16:41.512Z,2.30
2018-08-08T07:19:11.134Z,2.27
2018-08-08T07:21:40.771Z,1.80
2018-08-08T07:24:10.480Z,2.10
2018-08-08T07:26:40.064Z,2.77
2018-08-08T07:29:09.666Z,2.50
2018-08-08T07:31:39.399Z,2.23
2018-08-08T07:34:09.253Z,2.10
2018-08-08T07:36:38.917Z,2.87
2018-08-08T07:39:11.303Z,2.73
2018-08-08T07:41:41.017Z,1.77
2018-08-08T07:44:11.634Z,3.00
2018-08-08T07:46:41.239Z,2.50
2018-08-08T07:49:10.962Z,2.47
2018-08-08T07:51:40.660Z,2.43
2018-08-08T07:54:10.483Z,3.30
2018-08-08T07:56:40.297Z,2.70
2018-08-08T07:59:10.101Z,2.13
2018-08-08T08:01:39.749Z,2.63
2018-08-08T08:04:09.298Z,2.40
2018-08-08T08:06:39.057Z,2.47
2018-08-08T08:09:11.045Z,3.00
2018-08-08T08:11:40.754Z,2.87
2018-08-08T08:14:10.642Z,2.93
2018-08-08T08:16:40.936Z,3.27
2018-08-08T08:19:10.527Z,3.07
2018-08-08T08:21:40.345Z,3.30
2018-08-08T08:24:10.552Z,3.00
2018-08-08T08:26:40.088Z,3.30
2018-08-08T08:29:09.620Z,2.73
2018-08-08T08:31:39.770Z,3.10
2018-08-08T08:34:09.273Z,2.93
2018-08-08T08:36:38.961Z,2.77
2018-08-08T08:39:11.381Z,2.50
2018-08-08T08:41:41.092Z,2.33
2018-08-08T08:44:10.777Z,2.37
2018-08-08T08:46:40.354Z,2.30
2018-08-08T08:49:10.178Z,1.87
2018-08-08T08:51:39.816Z,1.87
2018-08-08T08:54:09.503Z,1.60
2018-08-08T08:56:39.228Z,1.93
2018-08-08T08:59:09.155Z,1.67
2018-08-08T09:01:38.770Z,1.30
2018-08-08T09:04:08.347Z,1.80
2018-08-08T09:06:37.949Z,1.43
2018-08-08T09:09:11.853Z,1.40
2018-08-08T09:11:41.598Z,1.40
2018-08-08T09:14:11.342Z,2.43
2018-08-08T09:16:41.006Z,1.87
2018-08-08T09:19:10.841Z,2.90
2018-08-08T09:21:40.666Z,2.13
2018-08-08T09:24:10.438Z,2.30
2018-08-08T09:26:40.455Z,2.53
2018-08-08T09:29:10.119Z,2.60
2018-08-08T09:31:39.902Z,2.70
2018-08-08T09:34:09.481Z,2.43
2018-08-08T09:36:39.118Z,1.97
2018-08-08T09:39:10.446Z,2.00
2018-08-08T09:41:40.165Z,1.90
2018-08-08T09:44:10.179Z,2.10
2018-08-08T09:46:40.032Z,1.70
2018-08-08T09:49:10.013Z,1.50
2018-08-08T09:51:39.772Z,1.50
2018-08-08T09:54:09.734Z,1.50
2018-08-08T09:56:39.432Z,1.70
2018-08-08T09:59:10.180Z,2.33
2018-08-08T10:01:45.009Z,2.20
2018-08-08T10:04:19.837Z,1.80
2018-08-08T10:06:49.555Z,2.20
2018-08-08T10:09:19.234Z,1.83
2018-08-08T10:11:48.865Z,2.30
2018-08-08T10:14:18.571Z,1.60
2018-08-08T10:16:48.807Z,1.80
2018-08-08T10:19:18.581Z,2.93
2018-08-08T10:21:48.312Z,2.20
2018-08-08T10:24:18.362Z,1.30
2018-08-08T10:26:48.152Z,1.97
2018-08-08T10:29:17.769Z,2.07
2018-08-08T10:31:47.527Z,1.93
2018-08-08T10:34:21.025Z,2.00
2018-08-08T10:36:50.657Z,2.53
2018-08-08T10:39:20.245Z,2.43
2018-08-08T10:41:49.937Z,2.07
2018-08-08T10:44:19.455Z,3.00
2018-08-08T10:46:49.315Z,2.60
2018-08-08T10:49:18.996Z,2.27
2018-08-08T10:51:48.617Z,3.00
2018-08-08T10:54:18.297Z,2.33
2018-08-08T10:56:48.034Z,2.70
2018-08-08T10:59:17.734Z,2.53
2018-08-08T11:01:47.351Z,2.33
2018-08-08T11:04:17.094Z,2.73
2018-08-08T11:06:46.783Z,2.30
2018-08-08T11:09:17.066Z,2.67
2018-08-08T11:11:46.810Z,2.50
2018-08-08T11:14:16.402Z,3.03
2018-08-08T11:16:46.135Z,2.93
2018-08-08T11:19:15.843Z,3.27
2018-08-08T11:21:45.756Z,3.20
2018-08-08T11:24:15.325Z,3.83
2018-08-08T11:26:44.925Z,3.60
2018-08-08T11:29:14.574Z,3.20
2018-08-08T11:31:44.456Z,2.67
2018-08-08T11:34:14.226Z,4.00
2018-08-08T11:36:44.101Z,4.20
2018-08-08T11:39:14.070Z,3.03
2018-08-08T11:41:43.969Z,4.60
2018-08-08T11:44:14.296Z,3.03
2018-08-08T11:46:43.947Z,4.03
2018-08-08T11:49:13.713Z,3.50
2018-08-08T11:51:43.261Z,3.03
2018-08-08T11:54:13.027Z,4.47
2018-08-08T11:56:42.625Z,3.80
2018-08-08T11:59:12.484Z,3.33
2018-08-08T12:01:42.046Z,3.53
2018-08-08T12:04:11.699Z,3.40
2018-08-08T12:06:41.440Z,4.37
2018-08-08T12:09:11.197Z,3.30
2018-08-08T12:11:41.108Z,3.37
2018-08-08T12:14:10.675Z,3.70
2018-08-08T12:16:40.285Z,3.97
2018-08-08T12:19:10.257Z,3.60
2018-08-08T12:21:46.359Z,2.87
2018-08-08T12:24:15.901Z,3.77
2018-08-08T12:26:46.081Z,3.50
2018-08-08T12:29:15.809Z,3.60
2018-08-08T12:31:45.924Z,4.87
2018-08-08T12:34:15.662Z,2.97
2018-08-08T12:36:45.442Z,3.73
2018-08-08T12:39:15.650Z,3.97
2018-08-08T12:41:45.371Z,4.37
2018-08-08T12:44:14.888Z,4.00
2018-08-08T12:46:44.499Z,3.20
2018-08-08T12:49:14.223Z,3.50
2018-08-08T12:51:43.932Z,4.10
2018-08-08T12:54:14.222Z,4.27
2018-08-08T12:56:44.112Z,3.90
2018-08-08T12:59:13.792Z,3.60
2018-08-08T13:01:43.666Z,2.63
2018-08-08T13:04:13.208Z,3.63
2018-08-08T13:06:42.917Z,3.50
2018-08-08T13:09:13.036Z,3.97
2018-08-08T13:11:42.639Z,4.50
2018-08-08T13:14:12.519Z,3.27
2018-08-08T13:16:42.060Z,3.90
2018-08-08T13:19:11.580Z,4.30
2018-08-08T13:21:41.276Z,3.73
2018-08-08T13:24:11.049Z,3.73
2018-08-08T13:26:40.695Z,3.93
2018-08-08T13:29:10.292Z,5.03
2018-08-08T13:31:40.016Z,3.60
2018-08-08T13:34:09.889Z,3.23
2018-08-08T13:36:39.628Z,3.40
2018-08-08T13:39:12.763Z,4.00
2018-08-08T13:41:42.664Z,3.37
2018-08-08T13:44:12.271Z,3.63
2018-08-08T13:46:44.667Z,3.70
2018-08-08T13:49:14.406Z,3.57
2018-08-08T13:51:44.438Z,5.40
2018-08-08T13:54:13.935Z,4.00
2018-08-08T13:56:43.506Z,4.20
2018-08-08T13:59:13.960Z,3.70
2018-08-08T14:01:43.679Z,3.90
2018-08-08T14:04:13.368Z,4.33
2018-08-08T14:06:43.201Z,4.70
2018-08-08T14:09:13.081Z,3.70
2018-08-08T14:11:42.724Z,3.57
2018-08-08T14:14:12.444Z,3.50
2018-08-08T14:16:42.292Z,4.60
2018-08-08T14:19:11.966Z,4.37
2018-08-08T14:21:41.681Z,3.67
2018-08-08T14:24:11.435Z,4.23
2018-08-08T14:26:40.994Z,4.40
2018-08-08T14:29:10.523Z,3.50
2018-08-08T14:31:40.077Z,3.27
2018-08-08T14:34:09.713Z,4.00
2018-08-08T14:36:39.416Z,3.57
2018-08-08T14:39:11.752Z,3.70
2018-08-08T14:41:42.049Z,3.90
2018-08-08T14:44:11.828Z,3.37
2018-08-08T14:46:41.520Z,4.33
2018-08-08T14:49:11.596Z,3.87
2018-08-08T14:51:41.293Z,3.67
2018-08-08T14:54:10.960Z,3.83
2018-08-08T14:56:40.709Z,3.47
2018-08-08T14:59:10.326Z,3.30
2018-08-08T15:01:39.949Z,3.60
2018-08-08T15:04:09.799Z,3.80
2018-08-08T15:06:39.975Z,3.37
2018-08-08T15:09:13.294Z,4.80
2018-08-08T15:11:43.158Z,3.60
2018-08-08T15:14:12.883Z,3.70
2018-08-08T15:16:42.674Z,4.27
2018-08-08T15:19:12.418Z,3.97
2018-08-08T15:21:42.199Z,3.70
2018-08-08T15:24:12.032Z,3.10
2018-08-08T15:26:41.744Z,3.60
2018-08-08T15:29:11.407Z,3.60
2018-08-08T15:31:41.159Z,3.67
2018-08-08T15:34:10.752Z,4.10
2018-08-08T15:36:40.795Z,3.03
2018-08-08T15:39:10.699Z,3.37
2018-08-08T15:41:40.374Z,3.90
2018-08-08T15:44:10.074Z,3.50
2018-08-08T15:46:39.705Z,4.57
2018-08-08T15:49:09.415Z,3.17
2018-08-08T15:51:39.085Z,5.60
2018-08-08T15:54:08.853Z,3.60
2018-08-08T15:56:38.488Z,3.77
2018-08-08T15:59:08.194Z,3.83
2018-08-08T16:01:37.877Z,3.27
2018-08-08T16:04:07.684Z,3.73
2018-08-08T16:06:37.499Z,3.80
2018-08-08T16:09:10.862Z,4.63
2018-08-08T16:11:40.591Z,3.63
2018-08-08T16:14:10.310Z,3.30
2018-08-08T16:16:39.947Z,3.30
2018-08-08T16:19:09.523Z,4.13
2018-08-08T16:21:39.389Z,3.10
2018-08-08T16:24:09.087Z,4.00
2018-08-08T16:26:38.833Z,3.43
2018-08-08T16:29:08.461Z,3.80
2018-08-08T16:31:38.107Z,4.53
2018-08-08T16:34:07.817Z,4.50
2018-08-08T16:36:38.263Z,4.00
2018-08-08T16:39:10.777Z,4.23
2018-08-08T16:41:41.239Z,5.80
2018-08-08T16:44:10.949Z,3.70
2018-08-08T16:46:40.712Z,3.97
2018-08-08T16:49:10.669Z,3.77
2018-08-08T16:51:40.371Z,4.07
2018-08-08T16:54:09.999Z,3.87
2018-08-08T16:56:39.793Z,3.57
2018-08-08T16:59:09.489Z,3.83
2018-08-08T17:01:39.196Z,4.00
2018-08-08T17:04:08.940Z,3.40
2018-08-08T17:06:38.484Z,3.70
2018-08-08T17:09:11.023Z,3.57
2018-08-08T17:11:40.830Z,4.63
2018-08-08T17:14:10.518Z,4.40
2018-08-08T17:16:40.121Z,3.70
2018-08-08T17:19:09.651Z,3.83
2018-08-08T17:21:39.341Z,4.27
2018-08-08T17:24:09.573Z,3.50
2018-08-08T17:26:39.178Z,4.57
2018-08-08T17:29:08.834Z,4.13
2018-08-08T17:31:38.538Z,4.00
2018-08-08T17:34:08.204Z,3.83
2018-08-08T17:36:37.795Z,4.60
2018-08-08T17:39:10.065Z,4.50
2018-08-08T17:41:40.135Z,4.00
2018-08-08T17:44:09.793Z,4.93
2018-08-08T17:46:39.498Z,4.57
2018-08-08T17:49:09.231Z,4.00
2018-08-08T17:51:38.768Z,3.83
2018-08-08T17:54:08.599Z,3.33
2018-08-08T17:56:38.254Z,4.00
2018-08-08T17:59:07.872Z,3.90
2018-08-08T18:01:37.592Z,4.00
2018-08-08T18:04:07.852Z,3.90
2018-08-08T18:06:37.513Z,4.70
2018-08-08T18:09:09.799Z,3.80
2018-08-08T18:11:39.693Z,4.13
2018-08-08T18:14:09.200Z,4.37
2018-08-08T18:16:39.016Z,5.30
2018-08-08T18:19:08.702Z,4.70
2018-08-08T18:21:38.737Z,4.07
2018-08-08T18:24:08.450Z,5.60
2018-08-08T18:26:38.193Z,4.10
2018-08-08T18:29:09.201Z,4.27
2018-08-08T18:31:45.681Z,4.60
2018-08-08T18:34:15.353Z,4.20
2018-08-08T18:36:45.073Z,4.10
2018-08-08T18:39:14.661Z,4.10
2018-08-08T18:41:44.210Z,3.37
2018-08-08T18:44:13.875Z,3.80
2018-08-08T18:46:44.166Z,4.23
2018-08-08T18:49:13.709Z,4.80
2018-08-08T18:51:43.541Z,4.10
2018-08-08T18:54:13.345Z,4.50
2018-08-08T18:56:43.082Z,4.00
2018-08-08T18:59:12.869Z,4.43
2018-08-08T19:01:42.480Z,4.50
2018-08-08T19:04:12.143Z,4.63
2018-08-08T19:06:41.897Z,4.27
2018-08-08T19:09:11.472Z,4.57
2018-08-08T19:11:42.651Z,4.40
2018-08-08T19:14:15.564Z,4.90
2018-08-08T19:16:45.408Z,5.30
2018-08-08T19:19:15.077Z,4.70
2018-08-08T19:21:44.705Z,5.00
2018-08-08T19:24:14.406Z,5.47
2018-08-08T19:26:44.241Z,5.37
2018-08-08T19:29:13.857Z,5.27
2018-08-08T19:31:43.670Z,4.33
2018-08-08T19:34:13.423Z,5.10
2018-08-08T19:36:43.168Z,5.50
2018-08-08T19:39:16.439Z,4.17
2018-08-08T19:41:46.274Z,4.77
2018-08-08T19:44:15.973Z,5.00
2018-08-08T19:46:45.818Z,5.10
2018-08-08T19:49:15.624Z,4.93
2018-08-08T19:51:45.416Z,5.50
2018-08-08T19:54:15.269Z,4.93
2018-08-08T19:56:44.908Z,6.87
2018-08-08T19:59:14.742Z,4.60
2018-08-08T20:01:44.331Z,4.80
2018-08-08T20:04:14.150Z,5.67
2018-08-08T20:06:43.966Z,4.43
2018-08-08T20:09:13.808Z,5.13
2018-08-08T20:11:43.374Z,5.33
2018-08-08T20:14:12.945Z,5.17
2018-08-08T20:16:42.801Z,4.93
2018-08-08T20:19:12.525Z,5.10
2018-08-08T20:21:42.246Z,5.73
2018-08-08T20:24:11.925Z,4.33
2018-08-08T20:26:41.568Z,4.20
2018-08-08T20:29:11.545Z,6.13
2018-08-08T20:31:41.371Z,5.20
2018-08-08T20:34:10.948Z,5.00
2018-08-08T20:36:40.594Z,5.37
2018-08-08T20:39:11.035Z,4.70
2018-08-08T20:41:40.697Z,4.83
2018-08-08T20:44:10.750Z,4.80
2018-08-08T20:46:40.798Z,5.20
2018-08-08T20:49:10.441Z,4.67
2018-08-08T20:51:40.124Z,4.30
2018-08-08T20:54:12.860Z,5.27
2018-08-08T20:56:42.556Z,6.10
2018-08-08T20:59:12.162Z,5.40
2018-08-08T21:01:41.676Z,6.00
2018-08-08T21:04:11.457Z,5.30
2018-08-08T21:06:47.652Z,4.30
2018-08-08T21:09:17.316Z,5.93
2018-08-08T21:11:47.065Z,5.07
2018-08-08T21:14:16.870Z,5.03
2018-08-08T21:16:46.499Z,5.43
2018-08-08T21:19:16.769Z,4.67
2018-08-08T21:21:46.481Z,5.17
2018-08-08T21:24:16.861Z,4.73
2018-08-08T21:26:46.923Z,5.33
2018-08-08T21:29:17.038Z,4.80
2018-08-08T21:31:47.055Z,4.87
2018-08-08T21:34:16.940Z,5.70
2018-08-08T21:36:46.718Z,5.87
2018-08-08T21:39:16.452Z,5.80
2018-08-08T21:41:46.224Z,5.23
2018-08-08T21:44:15.953Z,5.50
2018-08-08T21:46:45.624Z,5.33
2018-08-08T21:49:15.303Z,4.80
2018-08-08T21:51:44.943Z,6.07
2018-08-08T21:54:31.453Z,5.23
2018-08-08T21:57:17.564Z,4.60
2018-08-08T22:00:03.880Z,5.23
2018-08-08T22:02:49.924Z,5.60
2018-08-08T22:05:36.098Z,5.33
2018-08-08T22:08:22.463Z,5.13
2018-08-08T22:11:13.791Z,5.00
2018-08-08T22:15:01.037Z,5.53
2018-08-08T22:17:47.555Z,4.80
2018-08-08T22:20:17.252Z,5.50
2018-08-08T22:22:47.114Z,6.03
2018-08-08T22:25:16.737Z,5.30
2018-08-08T22:27:46.428Z,5.57
2018-08-08T22:30:16.252Z,5.97
2018-08-08T22:32:46.025Z,5.37
2018-08-08T22:35:15.655Z,6.00
2018-08-08T22:37:45.420Z,5.03
2018-08-08T22:40:15.237Z,5.20
2018-08-08T22:42:45.655Z,5.63
2018-08-08T22:45:15.388Z,5.20
2018-08-08T22:47:45.158Z,4.70
2018-08-08T22:50:14.922Z,6.03
2018-08-08T22:52:44.806Z,6.40
2018-08-08T22:55:14.434Z,6.23
2018-08-08T22:57:44.158Z,5.83
2018-08-08T23:00:13.937Z,6.17
2018-08-08T23:02:43.570Z,5.20
2018-08-08T23:05:13.169Z,5.33
2018-08-08T23:07:43.033Z,6.10
2018-08-08T23:10:12.668Z,6.50
2018-08-08T23:12:42.872Z,5.30
2018-08-08T23:15:13.381Z,5.77
2018-08-08T23:17:42.957Z,4.97
2018-08-08T23:20:12.486Z,5.73
2018-08-08T23:22:53.187Z,6.23
2018-08-08T23:25:23.019Z,5.80
2018-08-08T23:27:52.715Z,5.60
2018-08-08T23:30:22.299Z,6.23
2018-08-08T23:32:56.826Z,5.90
2018-08-08T23:35:26.572Z,6.17
2018-08-08T23:37:56.265Z,5.97
2018-08-08T23:40:25.720Z,6.10
2018-08-08T23:42:55.232Z,6.77
2018-08-08T23:45:24.761Z,6.37
2018-08-08T23:47:54.368Z,5.90
2018-08-08T23:50:24.219Z,6.20
2018-08-08T23:52:53.900Z,6.20
2018-08-08T23:55:23.617Z,5.87
2018-08-08T23:57:53.455Z,6.80
